createdAt,value
2023-05-31T00:00:37.595Z,35.90
2023-05-31T00:01:37.784Z,35.88
2023-05-31T00:02:37.751Z,35.86
2023-05-31T00:03:37.801Z,35.85
2023-05-31T00:04:37.802Z,35.88
2023-05-31T00:05:37.831Z,35.91
2023-05-31T00:06:37.906Z,35.88
2023-05-31T00:07:37.920Z,35.86
2023-05-31T00:08:37.957Z,35.89
2023-05-31T00:09:37.985Z,35.84
2023-05-31T00:10:38.088Z,35.85
2023-05-31T00:11:38.160Z,35.89
2023-05-31T00:12:38.147Z,35.86
2023-05-31T00:13:38.185Z,35.87
2023-05-31T00:14:38.241Z,35.88
2023-05-31T00:15:38.282Z,35.84
2023-05-31T00:17:49.094Z,35.85
2023-05-31T00:18:39.354Z,35.85
2023-05-31T00:19:38.310Z,35.91
2023-05-31T00:20:38.345Z,35.89
2023-05-31T00:21:38.316Z,35.85
2023-05-31T00:22:38.249Z,35.90
2023-05-31T00:23:38.258Z,35.85
2023-05-31T00:24:38.279Z,35.89
2023-05-31T00:25:38.265Z,35.84
2023-05-31T00:26:38.253Z,35.90
2023-05-31T00:27:38.205Z,35.89
2023-05-31T00:28:38.212Z,35.84
2023-05-31T00:29:38.229Z,35.86
2023-05-31T00:30:38.358Z,35.89
2023-05-31T00:31:38.318Z,35.79
2023-05-31T00:32:38.425Z,35.86
2023-05-31T00:33:38.446Z,35.85
2023-05-31T00:34:38.506Z,35.88
2023-05-31T00:35:38.513Z,35.86
2023-05-31T00:36:38.556Z,35.83
2023-05-31T00:37:38.672Z,35.85
2023-05-31T00:38:38.653Z,35.86
2023-05-31T00:39:38.703Z,35.84
2023-05-31T00:40:38.760Z,35.83
2023-05-31T00:41:38.808Z,35.84
2023-05-31T00:42:38.831Z,35.84
2023-05-31T00:43:38.890Z,35.85
2023-05-31T00:44:38.914Z,35.82
2023-05-31T00:45:38.990Z,35.84
2023-05-31T00:46:39.057Z,35.85
2023-05-31T00:47:39.116Z,35.84
2023-05-31T00:48:39.147Z,35.84
2023-05-31T00:49:39.173Z,35.84
2023-05-31T00:50:39.175Z,35.86
2023-05-31T00:51:39.250Z,35.84
2023-05-31T00:52:39.310Z,35.84
2023-05-31T00:53:39.348Z,35.84
2023-05-31T00:54:39.412Z,35.81
2023-05-31T00:55:39.486Z,35.78
2023-05-31T00:56:39.524Z,35.84
2023-05-31T00:57:39.521Z,35.83
2023-05-31T00:58:39.597Z,35.85
2023-05-31T00:59:39.624Z,35.76
2023-05-31T01:00:39.720Z,35.84
2023-05-31T01:01:39.810Z,35.80
2023-05-31T01:02:39.906Z,35.83
2023-05-31T01:03:39.906Z,35.83
2023-05-31T01:04:39.927Z,35.82
2023-05-31T01:05:39.987Z,35.80
2023-05-31T01:06:39.996Z,35.76
2023-05-31T01:07:40.074Z,35.81
2023-05-31T01:08:40.133Z,35.82
2023-05-31T01:09:40.137Z,35.81
2023-05-31T01:10:40.220Z,35.80
2023-05-31T01:11:40.304Z,35.84
2023-05-31T01:12:40.322Z,35.84
2023-05-31T01:13:40.376Z,35.79
2023-05-31T01:14:40.391Z,35.81
2023-05-31T01:15:40.464Z,35.81
2023-05-31T01:16:40.699Z,35.84
2023-05-31T01:17:40.622Z,35.81
2023-05-31T01:18:40.598Z,35.81
2023-05-31T01:19:40.747Z,35.80
2023-05-31T01:20:40.759Z,35.79
2023-05-31T01:21:40.770Z,35.76
2023-05-31T01:22:40.851Z,35.78
2023-05-31T01:23:40.900Z,35.81
2023-05-31T01:24:40.947Z,35.81
2023-05-31T01:25:40.990Z,35.82
2023-05-31T01:26:41.040Z,35.80
2023-05-31T01:27:41.080Z,35.80
2023-05-31T01:28:41.131Z,35.80
2023-05-31T01:29:41.185Z,35.80
2023-05-31T01:30:41.257Z,35.80
2023-05-31T01:31:41.317Z,35.82
2023-05-31T01:32:41.349Z,35.78
2023-05-31T01:33:41.346Z,35.78
2023-05-31T01:34:41.402Z,35.82
2023-05-31T01:35:41.470Z,35.76
2023-05-31T01:36:41.514Z,35.76
2023-05-31T01:37:41.540Z,35.73
2023-05-31T01:38:41.623Z,35.80
2023-05-31T01:39:41.640Z,35.77
2023-05-31T01:40:41.724Z,35.82
2023-05-31T01:41:41.740Z,35.81
2023-05-31T01:42:41.806Z,35.80
2023-05-31T01:43:41.877Z,35.80
2023-05-31T01:44:41.883Z,35.82
2023-05-31T01:45:41.972Z,35.80
2023-05-31T01:46:41.994Z,35.80
2023-05-31T01:47:42.045Z,35.79
2023-05-31T01:48:42.060Z,35.80
2023-05-31T01:49:42.132Z,35.81
2023-05-31T01:50:42.209Z,35.82
2023-05-31T01:51:42.210Z,35.77
2023-05-31T01:52:42.258Z,35.84
2023-05-31T01:53:42.348Z,35.79
2023-05-31T01:54:42.363Z,35.75
2023-05-31T01:55:42.432Z,35.81
2023-05-31T01:56:42.499Z,35.80
2023-05-31T01:57:42.510Z,35.77
2023-05-31T01:58:42.602Z,35.79
2023-05-31T01:59:42.666Z,35.80
2023-05-31T02:00:42.652Z,35.78
2023-05-31T02:01:42.831Z,35.78
2023-05-31T02:02:42.833Z,35.78
2023-05-31T02:03:42.871Z,35.76
2023-05-31T02:04:42.900Z,35.73
2023-05-31T02:05:42.927Z,35.84
2023-05-31T02:06:42.985Z,35.79
2023-05-31T02:07:43.097Z,35.76
2023-05-31T02:08:43.111Z,35.81
2023-05-31T02:09:43.136Z,35.80
2023-05-31T02:10:43.194Z,35.79
2023-05-31T02:11:43.216Z,35.80
2023-05-31T02:12:43.317Z,35.78
2023-05-31T02:13:43.370Z,35.82
2023-05-31T02:14:43.423Z,35.80
2023-05-31T02:15:43.416Z,35.80
2023-05-31T02:16:43.517Z,35.74
2023-05-31T02:17:43.704Z,35.74
2023-05-31T02:18:43.569Z,35.73
2023-05-31T02:19:43.612Z,35.74
2023-05-31T02:20:43.691Z,35.74
2023-05-31T02:21:43.746Z,35.80
2023-05-31T02:22:43.779Z,35.76
2023-05-31T02:23:43.832Z,35.73
2023-05-31T02:24:43.890Z,35.81
2023-05-31T02:25:43.899Z,35.79
2023-05-31T02:26:43.936Z,35.78
2023-05-31T02:27:44.039Z,35.75
2023-05-31T02:28:44.033Z,35.79
2023-05-31T02:29:44.079Z,35.71
2023-05-31T02:30:44.094Z,35.77
2023-05-31T02:31:44.191Z,35.77
2023-05-31T02:32:44.219Z,35.75
2023-05-31T02:33:44.237Z,35.79
2023-05-31T02:34:44.266Z,35.77
2023-05-31T02:35:44.299Z,35.76
2023-05-31T02:36:44.698Z,35.82
2023-05-31T02:37:44.390Z,35.77
2023-05-31T02:38:44.434Z,35.76
2023-05-31T02:39:44.528Z,35.76
2023-05-31T02:40:44.538Z,35.76
2023-05-31T02:41:44.579Z,35.78
2023-05-31T02:42:44.633Z,35.81
2023-05-31T02:43:44.665Z,35.81
2023-05-31T02:44:44.711Z,35.75
2023-05-31T02:45:44.804Z,35.78
2023-05-31T02:46:44.993Z,35.76
2023-05-31T02:47:44.891Z,35.78
2023-05-31T02:48:44.927Z,35.76
2023-05-31T02:49:44.936Z,35.76
2023-05-31T02:50:44.990Z,35.78
2023-05-31T02:51:45.022Z,35.74
2023-05-31T02:52:45.077Z,35.80
2023-05-31T02:53:45.114Z,35.81
2023-05-31T02:54:45.149Z,35.76
2023-05-31T02:55:45.234Z,35.80
2023-05-31T02:56:45.277Z,35.72
2023-05-31T02:57:45.325Z,35.78
2023-05-31T02:58:45.350Z,35.74
2023-05-31T02:59:45.422Z,35.77
2023-05-31T03:00:45.461Z,35.77
2023-05-31T03:01:45.540Z,35.72
2023-05-31T03:02:45.699Z,35.79
2023-05-31T03:03:45.656Z,35.76
2023-05-31T03:04:45.677Z,35.72
2023-05-31T03:05:45.710Z,35.77
2023-05-31T03:06:45.760Z,35.77
2023-05-31T03:07:45.802Z,35.78
2023-05-31T03:08:45.878Z,35.73
2023-05-31T03:09:45.913Z,35.77
2023-05-31T03:10:45.954Z,35.74
2023-05-31T03:11:46.017Z,35.78
2023-05-31T03:12:46.075Z,35.73
2023-05-31T03:13:46.115Z,35.77
2023-05-31T03:14:46.191Z,35.77
2023-05-31T03:15:46.256Z,35.73
2023-05-31T03:16:46.413Z,35.72
2023-05-31T03:17:46.364Z,35.73
2023-05-31T03:18:46.390Z,35.72
2023-05-31T03:19:46.429Z,35.74
2023-05-31T03:20:46.513Z,35.79
2023-05-31T03:21:46.566Z,35.76
2023-05-31T03:22:46.571Z,35.76
2023-05-31T03:23:46.623Z,35.79
2023-05-31T03:24:46.679Z,35.76
2023-05-31T03:25:46.730Z,35.72
2023-05-31T03:26:46.773Z,35.78
2023-05-31T03:27:46.847Z,35.77
2023-05-31T03:28:46.910Z,35.71
2023-05-31T03:29:46.946Z,35.77
2023-05-31T03:30:46.968Z,35.74
2023-05-31T03:31:47.046Z,35.74
2023-05-31T03:32:47.081Z,35.71
2023-05-31T03:33:47.164Z,35.79
2023-05-31T03:34:47.189Z,35.75
2023-05-31T03:35:47.225Z,35.77
2023-05-31T03:36:47.315Z,35.72
2023-05-31T03:37:47.338Z,35.72
2023-05-31T03:38:47.378Z,35.74
2023-05-31T03:39:47.449Z,35.77
2023-05-31T03:40:47.504Z,35.79
2023-05-31T03:41:47.601Z,35.77
2023-05-31T03:42:47.615Z,35.76
2023-05-31T03:43:47.660Z,35.74
2023-05-31T03:44:47.709Z,35.71
2023-05-31T03:45:47.773Z,35.69
2023-05-31T03:46:47.794Z,35.72
2023-05-31T03:47:47.879Z,35.69
2023-05-31T03:48:47.939Z,35.72
2023-05-31T03:49:47.979Z,35.71
2023-05-31T03:50:48.051Z,35.74
2023-05-31T03:51:48.079Z,35.74
2023-05-31T03:52:48.113Z,35.76
2023-05-31T03:53:48.150Z,35.75
2023-05-31T03:54:48.214Z,35.73
2023-05-31T03:55:48.265Z,35.73
2023-05-31T03:56:48.326Z,35.73
2023-05-31T03:57:48.395Z,35.71
2023-05-31T03:58:48.449Z,35.73
2023-05-31T03:59:48.471Z,35.71
2023-05-31T04:00:48.497Z,35.73
2023-05-31T04:01:48.602Z,35.72
2023-05-31T04:03:00.129Z,35.73
2023-05-31T04:03:49.762Z,35.73
2023-05-31T04:04:48.891Z,35.74
2023-05-31T04:05:48.587Z,35.72
2023-05-31T04:06:48.600Z,35.71
2023-05-31T04:07:48.578Z,35.69
2023-05-31T04:08:48.563Z,35.74
2023-05-31T04:09:48.567Z,35.73
2023-05-31T04:10:48.579Z,35.74
2023-05-31T04:11:48.580Z,35.73
2023-05-31T04:12:48.552Z,35.72
2023-05-31T04:13:48.540Z,35.71
2023-05-31T04:14:48.608Z,35.71
2023-05-31T04:15:48.661Z,35.72
2023-05-31T04:16:48.705Z,35.74
2023-05-31T04:17:48.887Z,35.71
2023-05-31T04:18:48.793Z,35.71
2023-05-31T04:19:48.853Z,35.72
2023-05-31T04:20:48.966Z,35.65
2023-05-31T04:21:48.957Z,35.69
2023-05-31T04:22:48.980Z,35.69
2023-05-31T04:24:49.079Z,35.68
2023-05-31T04:25:49.205Z,35.69
2023-05-31T04:26:49.200Z,35.69
2023-05-31T04:27:49.249Z,35.67
2023-05-31T04:28:49.284Z,35.71
2023-05-31T04:29:49.311Z,35.64
2023-05-31T04:30:49.479Z,35.65
2023-05-31T04:31:51.180Z,35.67
2023-05-31T04:32:49.706Z,35.66
2023-05-31T04:33:49.766Z,35.66
2023-05-31T04:34:49.780Z,35.65
2023-05-31T04:35:49.832Z,35.66
2023-05-31T04:36:50.219Z,35.64
2023-05-31T04:37:49.961Z,35.63
2023-05-31T04:38:50.004Z,35.63
2023-05-31T04:39:50.044Z,35.62
2023-05-31T04:40:50.080Z,35.64
2023-05-31T04:41:50.127Z,35.65
2023-05-31T04:42:50.165Z,35.65
2023-05-31T04:43:50.225Z,35.62
2023-05-31T04:44:50.268Z,35.65
2023-05-31T04:45:50.351Z,35.60
2023-05-31T04:46:50.409Z,35.60
2023-05-31T04:47:50.472Z,35.61
2023-05-31T04:48:50.503Z,35.66
2023-05-31T04:49:54.842Z,35.60
2023-05-31T04:50:50.521Z,35.59
2023-05-31T04:51:50.516Z,35.59
2023-05-31T04:52:50.527Z,35.62
2023-05-31T04:53:50.505Z,35.57
2023-05-31T04:54:50.507Z,35.54
2023-05-31T04:55:50.493Z,35.58
2023-05-31T04:56:50.474Z,35.58
2023-05-31T04:57:50.510Z,35.60
2023-05-31T04:58:50.476Z,35.54
2023-05-31T04:59:50.457Z,35.51
2023-05-31T05:00:50.497Z,35.57
2023-05-31T05:01:50.449Z,35.51
2023-05-31T05:02:50.515Z,35.54
2023-05-31T05:03:50.527Z,35.50
2023-05-31T05:04:50.543Z,35.50
2023-05-31T05:05:50.549Z,35.53
2023-05-31T05:06:50.655Z,35.51
2023-05-31T05:07:50.676Z,35.53
2023-05-31T05:08:50.710Z,35.51
2023-05-31T05:09:50.759Z,35.52
2023-05-31T05:10:50.779Z,35.54
2023-05-31T05:11:50.843Z,35.47
2023-05-31T05:12:50.864Z,35.50
2023-05-31T05:13:52.258Z,35.47
2023-05-31T05:14:50.970Z,35.53
2023-05-31T05:15:51.025Z,35.47
2023-05-31T05:16:51.121Z,35.53
2023-05-31T05:17:51.138Z,35.46
2023-05-31T05:18:51.172Z,35.54
2023-05-31T05:19:51.189Z,35.51
2023-05-31T05:20:51.379Z,35.46
2023-05-31T05:21:51.277Z,35.47
2023-05-31T05:22:51.341Z,35.46
2023-05-31T05:23:51.384Z,35.52
2023-05-31T05:24:51.402Z,35.48
2023-05-31T05:25:51.455Z,35.52
2023-05-31T05:26:51.451Z,35.47
2023-05-31T05:27:51.518Z,35.48
2023-05-31T05:28:51.588Z,35.44
2023-05-31T05:29:51.611Z,35.46
2023-05-31T05:30:51.665Z,35.43
2023-05-31T05:31:51.680Z,35.40
2023-05-31T05:32:51.736Z,35.44
2023-05-31T05:33:51.766Z,35.43
2023-05-31T05:34:51.806Z,35.40
2023-05-31T05:35:51.845Z,35.39
2023-05-31T05:36:51.899Z,35.41
2023-05-31T05:37:51.939Z,35.46
2023-05-31T05:38:51.946Z,35.41
2023-05-31T05:39:52.031Z,35.40
2023-05-31T05:40:52.061Z,35.41
2023-05-31T05:41:52.094Z,35.41
2023-05-31T05:42:52.138Z,35.45
2023-05-31T05:43:52.187Z,35.40
2023-05-31T05:44:52.231Z,35.35
2023-05-31T05:45:52.277Z,35.36
2023-05-31T05:46:52.391Z,35.38
2023-05-31T05:47:52.405Z,35.40
2023-05-31T05:48:52.404Z,34.67
2023-05-31T05:49:52.438Z,35.03
2023-05-31T05:50:52.513Z,34.99
2023-05-31T05:51:52.556Z,35.32
2023-05-31T05:52:52.596Z,35.19
2023-05-31T05:53:52.580Z,35.27
2023-05-31T05:54:52.671Z,35.98
2023-05-31T05:55:52.701Z,35.67
2023-05-31T05:56:52.761Z,36.11
2023-05-31T05:57:52.786Z,36.24
2023-05-31T05:58:52.792Z,36.24
2023-05-31T05:59:52.848Z,36.40
2023-05-31T06:00:52.837Z,37.07
2023-05-31T06:01:52.857Z,37.86
2023-05-31T06:02:52.975Z,37.47
2023-05-31T06:03:52.943Z,37.44
2023-05-31T06:04:52.920Z,37.01
2023-05-31T06:05:52.977Z,36.07
2023-05-31T06:06:52.953Z,35.53
2023-05-31T06:07:53.003Z,35.61
2023-05-31T06:08:53.052Z,36.13
2023-05-31T06:09:53.074Z,35.97
2023-05-31T06:10:53.113Z,36.08
2023-05-31T06:11:53.164Z,35.46
2023-05-31T06:12:53.169Z,35.19
2023-05-31T06:13:53.214Z,35.30
2023-05-31T06:14:55.384Z,35.84
2023-05-31T06:15:53.271Z,35.31
2023-05-31T06:16:53.347Z,35.39
2023-05-31T06:17:53.344Z,35.09
2023-05-31T06:18:53.352Z,35.33
2023-05-31T06:19:53.390Z,35.12
2023-05-31T06:20:53.501Z,35.29
2023-05-31T06:21:53.777Z,35.51
2023-05-31T06:22:53.442Z,35.66
2023-05-31T06:23:53.456Z,35.11
2023-05-31T06:24:53.474Z,34.67
2023-05-31T06:25:53.510Z,35.03
2023-05-31T06:26:53.475Z,34.77
2023-05-31T06:27:53.499Z,34.46
2023-05-31T06:28:53.488Z,34.34
2023-05-31T06:29:53.506Z,34.30
2023-05-31T06:30:53.524Z,34.19
2023-05-31T06:31:53.599Z,34.22
2023-05-31T06:32:53.608Z,34.20
2023-05-31T06:33:53.594Z,34.26
2023-05-31T06:34:53.591Z,34.57
2023-05-31T06:35:53.581Z,34.74
2023-05-31T06:36:53.644Z,34.79
2023-05-31T06:37:53.616Z,34.53
2023-05-31T06:38:53.612Z,34.77
2023-05-31T06:39:53.619Z,34.76
2023-05-31T06:40:53.619Z,34.69
2023-05-31T06:41:53.620Z,34.39
2023-05-31T06:42:53.615Z,34.66
2023-05-31T06:43:53.593Z,34.38
2023-05-31T06:44:56.785Z,34.87
2023-05-31T06:45:53.615Z,34.92
2023-05-31T06:46:53.648Z,34.85
2023-05-31T06:47:53.659Z,34.54
2023-05-31T06:49:00.483Z,34.60
2023-05-31T06:49:54.596Z,34.69
2023-05-31T06:50:53.606Z,34.93
2023-05-31T06:51:53.586Z,35.57
2023-05-31T06:52:53.575Z,35.46
2023-05-31T06:53:53.585Z,35.40
2023-05-31T06:54:53.589Z,35.49
2023-05-31T06:55:53.539Z,35.57
2023-05-31T06:56:53.576Z,35.60
2023-05-31T06:57:53.540Z,35.43
2023-05-31T06:58:53.525Z,35.28
2023-05-31T06:59:53.539Z,35.44
2023-05-31T07:00:53.576Z,35.12
2023-05-31T07:01:53.707Z,35.23
2023-05-31T07:02:53.699Z,35.40
2023-05-31T07:03:53.697Z,35.41
2023-05-31T07:04:53.699Z,35.37
2023-05-31T07:05:53.769Z,34.95
2023-05-31T07:06:53.796Z,34.65
2023-05-31T07:07:53.844Z,34.42
2023-05-31T07:08:53.878Z,34.27
2023-05-31T07:09:53.923Z,33.96
2023-05-31T07:10:53.953Z,34.06
2023-05-31T07:11:54.017Z,34.64
2023-05-31T07:12:54.065Z,34.87
2023-05-31T07:13:54.126Z,35.09
2023-05-31T07:14:54.160Z,35.19
2023-05-31T07:15:54.249Z,35.31
2023-05-31T07:16:54.290Z,35.39
2023-05-31T07:17:54.400Z,35.51
2023-05-31T07:18:54.363Z,35.85
2023-05-31T07:19:54.387Z,35.81
2023-05-31T07:20:54.495Z,35.91
2023-05-31T07:21:54.857Z,35.85
2023-05-31T07:22:54.470Z,35.80
2023-05-31T07:23:54.439Z,35.81
2023-05-31T07:24:54.522Z,35.77
2023-05-31T07:25:54.536Z,35.74
2023-05-31T07:26:54.529Z,35.71
2023-05-31T07:27:54.592Z,35.68
2023-05-31T07:28:54.708Z,35.71
2023-05-31T07:29:54.652Z,35.71
2023-05-31T07:30:54.656Z,35.74
2023-05-31T07:31:54.709Z,35.63
2023-05-31T07:32:54.858Z,35.84
2023-05-31T07:33:54.806Z,36.01
2023-05-31T07:35:03.979Z,36.18
2023-05-31T07:35:58.467Z,36.43
2023-05-31T07:36:54.798Z,36.59
2023-05-31T07:37:54.810Z,36.77
2023-05-31T07:38:54.817Z,36.89
2023-05-31T07:39:54.780Z,37.02
2023-05-31T07:40:54.762Z,37.11
2023-05-31T07:41:54.839Z,37.21
2023-05-31T07:42:54.791Z,37.28
2023-05-31T07:43:54.751Z,37.39
2023-05-31T07:44:54.746Z,37.55
2023-05-31T07:45:54.728Z,37.64
2023-05-31T07:46:54.781Z,37.82
2023-05-31T07:47:54.794Z,38.02
2023-05-31T07:48:54.754Z,37.79
2023-05-31T07:49:54.739Z,37.40
2023-05-31T07:50:54.732Z,37.47
2023-05-31T07:51:54.840Z,36.96
2023-05-31T07:52:54.815Z,37.23
2023-05-31T07:53:54.727Z,37.33
2023-05-31T07:54:54.657Z,37.63
2023-05-31T07:55:54.661Z,37.76
2023-05-31T07:56:55.299Z,37.90
2023-05-31T07:57:54.676Z,37.94
2023-05-31T07:58:55.716Z,38.17
2023-05-31T07:59:54.657Z,38.04
2023-05-31T08:00:54.617Z,38.17
2023-05-31T08:01:55.348Z,38.34
2023-05-31T08:02:54.619Z,38.34
2023-05-31T08:03:54.655Z,38.45
2023-05-31T08:04:54.611Z,38.60
2023-05-31T08:05:56.306Z,38.64
2023-05-31T08:06:54.863Z,38.82
2023-05-31T08:07:54.613Z,38.84
2023-05-31T08:08:54.591Z,38.93
2023-05-31T08:09:55.344Z,38.95
2023-05-31T08:10:54.576Z,39.00
2023-05-31T08:11:54.835Z,38.92
2023-05-31T08:12:54.696Z,38.94
2023-05-31T08:13:54.698Z,39.25
2023-05-31T08:14:54.696Z,39.21
2023-05-31T08:15:54.737Z,38.58
2023-05-31T08:16:54.870Z,38.30
2023-05-31T08:17:54.790Z,35.63
2023-05-31T08:18:54.849Z,35.15
2023-05-31T08:19:54.931Z,36.02
2023-05-31T08:20:54.970Z,36.47
2023-05-31T08:21:55.361Z,36.91
2023-05-31T08:22:55.050Z,37.31
2023-05-31T08:23:55.101Z,37.52
2023-05-31T08:24:55.144Z,37.70
2023-05-31T08:25:55.185Z,37.63
2023-05-31T08:26:55.305Z,37.91
2023-05-31T08:27:55.210Z,38.00
2023-05-31T08:28:55.275Z,37.97
2023-05-31T08:29:55.279Z,37.91
2023-05-31T08:30:55.360Z,38.04
2023-05-31T08:31:55.370Z,38.07
2023-05-31T08:32:55.350Z,38.17
2023-05-31T08:33:55.366Z,38.19
2023-05-31T08:34:55.408Z,38.22
2023-05-31T08:35:55.412Z,38.29
2023-05-31T08:36:55.378Z,38.39
2023-05-31T08:37:55.349Z,38.40
2023-05-31T08:38:55.359Z,38.31
2023-05-31T08:39:55.380Z,38.45
2023-05-31T08:40:55.407Z,38.58
2023-05-31T08:41:55.925Z,38.74
2023-05-31T08:42:55.381Z,38.71
2023-05-31T08:43:55.396Z,38.51
2023-05-31T08:44:55.385Z,37.43
2023-05-31T08:45:55.399Z,37.70
2023-05-31T08:46:55.377Z,37.83
2023-05-31T08:47:55.502Z,37.74
2023-05-31T08:48:55.451Z,37.46
2023-05-31T08:49:55.414Z,37.52
2023-05-31T08:50:55.451Z,37.46
2023-05-31T08:51:55.886Z,37.02
2023-05-31T08:52:55.500Z,36.73
2023-05-31T08:53:55.547Z,36.42
2023-05-31T08:54:55.602Z,37.29
2023-05-31T08:55:55.624Z,37.23
2023-05-31T08:56:55.858Z,36.75
2023-05-31T08:57:55.744Z,37.01
2023-05-31T08:58:55.807Z,37.26
2023-05-31T08:59:55.830Z,37.48
2023-05-31T09:00:55.860Z,37.59
2023-05-31T09:01:55.993Z,37.77
2023-05-31T09:02:56.010Z,37.92
2023-05-31T09:03:56.049Z,38.16
2023-05-31T09:04:56.049Z,38.20
2023-05-31T09:05:56.077Z,38.33
2023-05-31T09:06:56.396Z,38.43
2023-05-31T09:07:56.192Z,38.56
2023-05-31T09:08:56.238Z,38.66
2023-05-31T09:09:56.316Z,38.86
2023-05-31T09:10:56.381Z,39.05
2023-05-31T09:11:56.337Z,39.20
2023-05-31T09:12:56.390Z,39.27
2023-05-31T09:13:56.455Z,39.34
2023-05-31T09:14:56.496Z,39.40
2023-05-31T09:15:56.572Z,39.44
2023-05-31T09:16:56.661Z,39.56
2023-05-31T09:17:56.635Z,40.08
2023-05-31T09:18:56.682Z,39.84
2023-05-31T09:19:56.750Z,39.93
2023-05-31T09:20:56.845Z,40.12
2023-05-31T09:21:56.812Z,40.19
2023-05-31T09:22:56.821Z,40.35
2023-05-31T09:23:56.869Z,40.40
2023-05-31T09:24:56.930Z,40.54
2023-05-31T09:25:56.952Z,40.72
2023-05-31T09:26:56.996Z,40.82
2023-05-31T09:27:57.042Z,40.75
2023-05-31T09:28:57.072Z,40.81
2023-05-31T09:29:57.076Z,40.91
2023-05-31T09:30:57.179Z,40.93
2023-05-31T09:31:57.434Z,40.95
2023-05-31T09:32:57.221Z,40.96
2023-05-31T09:33:57.246Z,41.11
2023-05-31T09:34:57.434Z,41.17
2023-05-31T09:35:57.379Z,41.21
2023-05-31T09:36:57.902Z,41.25
2023-05-31T09:37:57.408Z,41.34
2023-05-31T09:38:57.458Z,41.36
2023-05-31T09:39:57.474Z,41.42
2023-05-31T09:40:57.526Z,41.55
2023-05-31T09:41:57.549Z,41.63
2023-05-31T09:42:57.621Z,41.74
2023-05-31T09:43:57.624Z,41.93
2023-05-31T09:44:57.668Z,41.89
2023-05-31T09:45:57.728Z,41.90
2023-05-31T09:46:57.957Z,41.93
2023-05-31T09:47:57.786Z,41.98
2023-05-31T09:48:57.764Z,41.69
2023-05-31T09:49:57.834Z,41.34
2023-05-31T09:50:58.049Z,40.30
2023-05-31T09:51:57.897Z,40.07
2023-05-31T09:52:57.923Z,40.41
2023-05-31T09:53:57.955Z,40.70
2023-05-31T09:54:58.035Z,40.69
2023-05-31T09:55:58.062Z,40.73
2023-05-31T09:56:58.377Z,40.66
2023-05-31T09:57:58.169Z,40.53
2023-05-31T09:58:58.187Z,40.44
2023-05-31T09:59:58.295Z,40.35
2023-05-31T10:00:58.459Z,40.33
2023-05-31T10:01:58.455Z,40.28
2023-05-31T10:02:58.443Z,40.17
2023-05-31T10:03:58.417Z,40.15
2023-05-31T10:04:58.497Z,40.06
2023-05-31T10:05:58.542Z,39.98
2023-05-31T10:06:58.897Z,39.87
2023-05-31T10:07:58.675Z,39.79
2023-05-31T10:08:58.714Z,39.76
2023-05-31T10:09:58.755Z,39.72
2023-05-31T10:10:59.042Z,39.65
2023-05-31T10:11:58.917Z,39.65
2023-05-31T10:13:00.189Z,39.63
2023-05-31T10:13:58.919Z,39.56
2023-05-31T10:14:58.871Z,39.56
2023-05-31T10:15:58.920Z,39.50
2023-05-31T10:16:59.392Z,39.51
2023-05-31T10:17:58.915Z,39.49
2023-05-31T10:18:58.881Z,39.49
2023-05-31T10:19:58.904Z,39.42
2023-05-31T10:20:59.052Z,39.42
2023-05-31T10:21:58.895Z,39.43
2023-05-31T10:22:58.871Z,39.41
2023-05-31T10:23:58.870Z,39.36
2023-05-31T10:24:58.840Z,39.39
2023-05-31T10:25:58.797Z,39.33
2023-05-31T10:26:58.831Z,39.37
2023-05-31T10:27:58.788Z,39.35
2023-05-31T10:28:58.793Z,39.30
2023-05-31T10:29:58.817Z,39.33
2023-05-31T10:30:59.024Z,39.34
2023-05-31T10:31:58.915Z,39.29
2023-05-31T10:32:58.867Z,39.29
2023-05-31T10:33:58.778Z,39.30
2023-05-31T10:34:58.815Z,39.30
2023-05-31T10:35:58.762Z,39.24
2023-05-31T10:36:58.899Z,39.25
2023-05-31T10:37:58.758Z,39.21
2023-05-31T10:38:58.754Z,39.22
2023-05-31T10:39:58.777Z,39.20
2023-05-31T10:40:58.848Z,39.20
2023-05-31T10:41:58.967Z,39.21
2023-05-31T10:42:58.918Z,39.17
2023-05-31T10:43:58.753Z,39.13
2023-05-31T10:44:58.699Z,39.13
2023-05-31T10:45:58.680Z,39.15
2023-05-31T10:46:58.926Z,39.08
2023-05-31T10:47:58.767Z,39.14
2023-05-31T10:48:58.685Z,39.31
2023-05-31T10:49:58.664Z,39.44
2023-05-31T10:50:58.900Z,39.47
2023-05-31T10:51:58.895Z,39.44
2023-05-31T10:52:58.626Z,39.50
2023-05-31T10:53:58.642Z,39.47
2023-05-31T10:54:58.614Z,39.45
2023-05-31T10:55:58.615Z,39.45
2023-05-31T10:56:58.938Z,39.44
2023-05-31T10:57:58.595Z,39.44
2023-05-31T10:58:58.562Z,39.43
2023-05-31T10:59:58.569Z,39.41
2023-05-31T11:00:58.902Z,39.42
2023-05-31T11:01:58.551Z,39.33
2023-05-31T11:02:58.631Z,39.36
2023-05-31T11:03:58.599Z,39.33
2023-05-31T11:04:58.544Z,39.32
2023-05-31T11:05:58.558Z,39.38
2023-05-31T11:06:58.990Z,39.37
2023-05-31T11:07:58.520Z,39.40
2023-05-31T11:08:58.500Z,39.34
2023-05-31T11:09:58.522Z,39.37
2023-05-31T11:10:58.778Z,39.38
2023-05-31T11:11:58.899Z,39.36
2023-05-31T11:12:58.633Z,39.39
2023-05-31T11:13:58.671Z,39.38
2023-05-31T11:14:58.683Z,39.38
2023-05-31T11:15:58.773Z,39.36
2023-05-31T11:16:58.907Z,39.31
2023-05-31T11:17:58.907Z,39.28
2023-05-31T11:18:58.856Z,39.32
2023-05-31T11:19:58.869Z,39.29
2023-05-31T11:20:59.022Z,39.32
2023-05-31T11:21:58.951Z,39.33
2023-05-31T11:22:58.962Z,39.32
2023-05-31T11:23:58.992Z,39.34
2023-05-31T11:24:59.001Z,39.36
2023-05-31T11:25:59.118Z,39.41
2023-05-31T11:26:59.427Z,39.36
2023-05-31T11:27:59.150Z,39.27
2023-05-31T11:28:59.179Z,39.36
2023-05-31T11:29:59.244Z,39.36
2023-05-31T11:30:59.422Z,39.39
2023-05-31T11:31:59.371Z,39.32
2023-05-31T11:32:59.332Z,39.25
2023-05-31T11:33:59.298Z,39.24
2023-05-31T11:34:59.331Z,39.22
2023-05-31T11:35:59.318Z,39.25
2023-05-31T11:36:59.363Z,39.18
2023-05-31T11:37:59.320Z,39.18
2023-05-31T11:38:59.341Z,39.17
2023-05-31T11:39:59.338Z,39.22
2023-05-31T11:40:59.447Z,39.15
2023-05-31T11:41:59.306Z,39.16
2023-05-31T11:42:59.302Z,39.14
2023-05-31T11:43:59.300Z,39.18
2023-05-31T11:44:59.302Z,39.19
2023-05-31T11:45:59.294Z,39.18
2023-05-31T11:46:59.306Z,39.18
2023-05-31T11:47:59.286Z,39.15
2023-05-31T11:48:59.280Z,39.14
2023-05-31T11:49:59.263Z,39.10
2023-05-31T11:50:59.564Z,39.11
2023-05-31T11:51:59.248Z,39.12
2023-05-31T11:52:59.488Z,39.14
2023-05-31T11:53:59.284Z,39.14
2023-05-31T11:54:59.246Z,39.17
2023-05-31T11:55:59.258Z,39.14
2023-05-31T11:56:59.298Z,39.14
2023-05-31T11:57:59.298Z,39.18
2023-05-31T11:58:59.297Z,39.14
2023-05-31T11:59:59.305Z,39.13
2023-05-31T12:00:59.431Z,39.11
2023-05-31T12:01:59.322Z,39.15
2023-05-31T12:02:59.325Z,39.14
2023-05-31T12:03:59.360Z,39.16
2023-05-31T12:04:59.288Z,39.16
2023-05-31T12:05:59.328Z,39.14
2023-05-31T12:06:59.309Z,39.16
2023-05-31T12:07:59.347Z,39.11
2023-05-31T12:08:59.322Z,39.13
2023-05-31T12:09:59.351Z,39.12
2023-05-31T12:10:59.538Z,39.12
2023-05-31T12:11:59.458Z,39.12
2023-05-31T12:13:01.242Z,39.14
2023-05-31T12:13:59.415Z,39.11
2023-05-31T12:14:59.383Z,39.11
2023-05-31T12:15:59.414Z,39.09
2023-05-31T12:16:59.376Z,39.09
2023-05-31T12:17:59.485Z,39.09
2023-05-31T12:18:59.382Z,39.10
2023-05-31T12:19:59.389Z,39.02
2023-05-31T12:20:59.833Z,39.06
2023-05-31T12:21:59.337Z,39.05
2023-05-31T12:22:59.314Z,39.08
2023-05-31T12:23:59.345Z,39.08
2023-05-31T12:24:59.312Z,39.03
2023-05-31T12:25:59.350Z,39.04
2023-05-31T12:26:59.324Z,39.09
2023-05-31T12:27:59.293Z,39.06
2023-05-31T12:28:59.286Z,39.01
2023-05-31T12:29:59.257Z,39.02
2023-05-31T12:30:59.282Z,39.02
2023-05-31T12:31:59.308Z,39.05
2023-05-31T12:32:59.443Z,39.02
2023-05-31T12:33:59.242Z,38.98
2023-05-31T12:34:59.252Z,39.02
2023-05-31T12:35:59.257Z,39.00
2023-05-31T12:36:59.236Z,39.02
2023-05-31T12:37:59.480Z,39.01
2023-05-31T12:38:59.218Z,38.97
2023-05-31T12:39:59.199Z,38.99
2023-05-31T12:40:59.595Z,39.00
2023-05-31T12:41:59.218Z,38.98
2023-05-31T12:42:59.473Z,38.94
2023-05-31T12:43:59.162Z,38.98
2023-05-31T12:44:59.166Z,38.95
2023-05-31T12:45:59.270Z,38.98
2023-05-31T12:46:59.172Z,38.93
2023-05-31T12:47:59.228Z,38.96
2023-05-31T12:48:59.176Z,38.94
2023-05-31T12:49:59.141Z,38.90
2023-05-31T12:50:59.309Z,38.91
2023-05-31T12:51:59.099Z,38.91
2023-05-31T12:52:59.134Z,38.87
2023-05-31T12:53:59.136Z,38.89
2023-05-31T12:54:59.135Z,38.93